sensor_id;sensor_type;location;lat;lon;timestamp;P1;durP1;ratioP1;P2;durP2;ratioP2
65358;SDS011;52491;45.900;6.346;2024-03-17T00:00:44;1.70;;;1.40;;
65358;SDS011;52491;45.900;6.346;2024-03-17T00:03:10;1.95;;;1.25;;
65358;SDS011;52491;45.900;6.346;2024-03-17T00:05:36;3.42;;;1.80;;
65358;SDS011;52491;45.900;6.346;2024-03-17T00:08:03;2.58;;;1.50;;
65358;SDS011;52491;45.900;6.346;2024-03-17T00:10:30;2.63;;;1.48;;
65358;SDS011;52491;45.900;6.346;2024-03-17T00:12:57;6.07;;;1.95;;
65358;SDS011;52491;45.900;6.346;2024-03-17T00:15:23;2.53;;;1.10;;
65358;SDS011;52491;45.900;6.346;2024-03-17T00:17:48;1.63;;;1.02;;
65358;SDS011;52491;45.900;6.346;2024-03-17T00:20:14;2.95;;;1.17;;
65358;SDS011;52491;45.900;6.346;2024-03-17T00:22:46;1.33;;;1.17;;
65358;SDS011;52491;45.900;6.346;2024-03-17T00:25:14;1.80;;;1.20;;
65358;SDS011;52491;45.900;6.346;2024-03-17T00:27:40;3.00;;;1.30;;
65358;SDS011;52491;45.900;6.346;2024-03-17T00:30:09;4.10;;;1.52;;
65358;SDS011;52491;45.900;6.346;2024-03-17T00:32:38;3.85;;;1.60;;
65358;SDS011;52491;45.900;6.346;2024-03-17T00:35:05;1.95;;;1.35;;
65358;SDS011;52491;45.900;6.346;2024-03-17T00:37:32;1.85;;;1.30;;
65358;SDS011;52491;45.900;6.346;2024-03-17T00:39:59;5.30;;;1.95;;
65358;SDS011;52491;45.900;6.346;2024-03-17T00:42:26;3.03;;;1.45;;
65358;SDS011;52491;45.900;6.346;2024-03-17T00:44:52;3.03;;;1.63;;
65358;SDS011;52491;45.900;6.346;2024-03-17T00:47:17;2.40;;;1.10;;
65358;SDS011;52491;45.900;6.346;2024-03-17T00:49:43;4.03;;;1.80;;
65358;SDS011;52491;45.900;6.346;2024-03-17T00:52:09;2.60;;;1.23;;
65358;SDS011;52491;45.900;6.346;2024-03-17T00:54:34;2.42;;;1.10;;
65358;SDS011;52491;45.900;6.346;2024-03-17T00:57:00;3.53;;;1.48;;
65358;SDS011;52491;45.900;6.346;2024-03-17T00:59:27;4.65;;;1.35;;
65358;SDS011;52491;45.900;6.346;2024-03-17T01:01:53;4.82;;;1.10;;
65358;SDS011;52491;45.900;6.346;2024-03-17T01:04:18;2.05;;;0.95;;
65358;SDS011;52491;45.900;6.346;2024-03-17T01:06:44;3.67;;;1.25;;
65358;SDS011;52491;45.900;6.346;2024-03-17T01:09:09;3.58;;;1.15;;
65358;SDS011;52491;45.900;6.346;2024-03-17T01:11:35;1.65;;;0.90;;
65358;SDS011;52491;45.900;6.346;2024-03-17T01:14:01;3.30;;;1.73;;
65358;SDS011;52491;45.900;6.346;2024-03-17T01:16:26;1.88;;;1.25;;
65358;SDS011;52491;45.900;6.346;2024-03-17T01:18:52;3.22;;;1.00;;
65358;SDS011;52491;45.900;6.346;2024-03-17T01:21:19;1.60;;;1.08;;
65358;SDS011;52491;45.900;6.346;2024-03-17T01:23:47;2.40;;;0.98;;
65358;SDS011;52491;45.900;6.346;2024-03-17T01:26:14;1.45;;;0.93;;
65358;SDS011;52491;45.900;6.346;2024-03-17T01:28:40;2.15;;;0.90;;
65358;SDS011;52491;45.900;6.346;2024-03-17T01:31:06;3.03;;;1.40;;
65358;SDS011;52491;45.900;6.346;2024-03-17T01:33:32;1.95;;;0.95;;
65358;SDS011;52491;45.900;6.346;2024-03-17T01:35:58;2.88;;;1.13;;
65358;SDS011;52491;45.900;6.346;2024-03-17T01:38:24;2.30;;;0.98;;
65358;SDS011;52491;45.900;6.346;2024-03-17T01:40:49;1.50;;;0.93;;
65358;SDS011;52491;45.900;6.346;2024-03-17T01:43:15;1.60;;;1.17;;
65358;SDS011;52491;45.900;6.346;2024-03-17T01:45:41;2.38;;;1.00;;
65358;SDS011;52491;45.900;6.346;2024-03-17T01:48:10;2.65;;;1.52;;
65358;SDS011;52491;45.900;6.346;2024-03-17T01:50:40;3.03;;;1.13;;
65358;SDS011;52491;45.900;6.346;2024-03-17T01:53:08;2.50;;;1.20;;
65358;SDS011;52491;45.900;6.346;2024-03-17T01:55:36;1.25;;;0.95;;
65358;SDS011;52491;45.900;6.346;2024-03-17T01:58:04;1.48;;;1.08;;
65358;SDS011;52491;45.900;6.346;2024-03-17T02:00:31;1.50;;;1.02;;
65358;SDS011;52491;45.900;6.346;2024-03-17T02:02:58;1.38;;;1.13;;
65358;SDS011;52491;45.900;6.346;2024-03-17T02:05:24;2.25;;;1.05;;
65358;SDS011;52491;45.900;6.346;2024-03-17T02:07:50;2.63;;;0.98;;
65358;SDS011;52491;45.900;6.346;2024-03-17T02:10:16;1.52;;;0.90;;
65358;SDS011;52491;45.900;6.346;2024-03-17T02:12:42;2.42;;;1.10;;
65358;SDS011;52491;45.900;6.346;2024-03-17T02:15:08;2.42;;;1.27;;
65358;SDS011;52491;45.900;6.346;2024-03-17T02:17:34;1.60;;;1.20;;
65358;SDS011;52491;45.900;6.346;2024-03-17T02:19:59;4.00;;;1.10;;
65358;SDS011;52491;45.900;6.346;2024-03-17T02:22:25;2.03;;;0.93;;
65358;SDS011;52491;45.900;6.346;2024-03-17T02:24:53;1.58;;;0.90;;
65358;SDS011;52491;45.900;6.346;2024-03-17T02:27:19;2.05;;;1.30;;
65358;SDS011;52491;45.900;6.346;2024-03-17T02:29:45;1.80;;;0.82;;
65358;SDS011;52491;45.900;6.346;2024-03-17T02:32:10;3.78;;;1.50;;
65358;SDS011;52491;45.900;6.346;2024-03-17T02:34:37;0.80;;;0.70;;
65358;SDS011;52491;45.900;6.346;2024-03-17T02:37:04;14.95;;;1.38;;
65358;SDS011;52491;45.900;6.346;2024-03-17T02:39:32;4.18;;;1.30;;
65358;SDS011;52491;45.900;6.346;2024-03-17T02:42:07;1.45;;;1.02;;
65358;SDS011;52491;45.900;6.346;2024-03-17T02:44:34;1.13;;;1.02;;
65358;SDS011;52491;45.900;6.346;2024-03-17T02:47:02;2.10;;;1.00;;
65358;SDS011;52491;45.900;6.346;2024-03-17T02:49:29;2.03;;;1.25;;
65358;SDS011;52491;45.900;6.346;2024-03-17T02:52:02;2.88;;;1.25;;
65358;SDS011;52491;45.900;6.346;2024-03-17T02:54:30;1.60;;;1.25;;
65358;SDS011;52491;45.900;6.346;2024-03-17T02:56:56;1.08;;;0.82;;
65358;SDS011;52491;45.900;6.346;2024-03-17T02:59:21;1.52;;;1.08;;
65358;SDS011;52491;45.900;6.346;2024-03-17T03:01:47;1.08;;;0.90;;
65358;SDS011;52491;45.900;6.346;2024-03-17T03:04:13;1.52;;;1.17;;
65358;SDS011;52491;45.900;6.346;2024-03-17T03:06:39;2.15;;;1.15;;
65358;SDS011;52491;45.900;6.346;2024-03-17T03:09:05;1.77;;;1.10;;
65358;SDS011;52491;45.900;6.346;2024-03-17T03:11:38;1.25;;;0.90;;
65358;SDS011;52491;45.900;6.346;2024-03-17T03:14:05;1.20;;;0.85;;
65358;SDS011;52491;45.900;6.346;2024-03-17T03:16:31;1.25;;;0.80;;
65358;SDS011;52491;45.900;6.346;2024-03-17T03:18:56;1.75;;;1.08;;
65358;SDS011;52491;45.900;6.346;2024-03-17T03:21:22;1.98;;;1.33;;
65358;SDS011;52491;45.900;6.346;2024-03-17T03:23:47;2.33;;;1.15;;
65358;SDS011;52491;45.900;6.346;2024-03-17T03:26:13;2.30;;;1.00;;
65358;SDS011;52491;45.900;6.346;2024-03-17T03:28:40;1.50;;;1.20;;
65358;SDS011;52491;45.900;6.346;2024-03-17T03:31:05;2.95;;;1.50;;
65358;SDS011;52491;45.900;6.346;2024-03-17T03:33:32;2.22;;;1.15;;
65358;SDS011;52491;45.900;6.346;2024-03-17T03:35:57;1.23;;;1.05;;
65358;SDS011;52491;45.900;6.346;2024-03-17T03:38:23;1.67;;;0.98;;
65358;SDS011;52491;45.900;6.346;2024-03-17T03:40:50;0.65;;;0.63;;
65358;SDS011;52491;45.900;6.346;2024-03-17T03:43:15;1.40;;;0.93;;
65358;SDS011;52491;45.900;6.346;2024-03-17T03:45:41;2.28;;;1.08;;
65358;SDS011;52491;45.900;6.346;2024-03-17T03:48:07;0.88;;;0.80;;
65358;SDS011;52491;45.900;6.346;2024-03-17T03:50:33;1.48;;;0.98;;
65358;SDS011;52491;45.900;6.346;2024-03-17T03:52:59;2.10;;;1.45;;
65358;SDS011;52491;45.900;6.346;2024-03-17T03:55:25;1.48;;;1.00;;
65358;SDS011;52491;45.900;6.346;2024-03-17T03:57:51;2.83;;;1.10;;
65358;SDS011;52491;45.900;6.346;2024-03-17T04:00:19;2.65;;;1.23;;
65358;SDS011;52491;45.900;6.346;2024-03-17T04:02:45;1.15;;;0.90;;
65358;SDS011;52491;45.900;6.346;2024-03-17T04:05:11;1.88;;;0.85;;
65358;SDS011;52491;45.900;6.346;2024-03-17T04:07:37;1.33;;;0.93;;
65358;SDS011;52491;45.900;6.346;2024-03-17T04:10:03;1.05;;;0.82;;
65358;SDS011;52491;45.900;6.346;2024-03-17T04:12:30;2.00;;;0.93;;
65358;SDS011;52491;45.900;6.346;2024-03-17T04:14:56;1.13;;;0.85;;
65358;SDS011;52491;45.900;6.346;2024-03-17T04:17:23;1.38;;;1.08;;
65358;SDS011;52491;45.900;6.346;2024-03-17T04:19:49;1.60;;;1.35;;
65358;SDS011;52491;45.900;6.346;2024-03-17T04:22:16;1.23;;;1.08;;
65358;SDS011;52491;45.900;6.346;2024-03-17T04:24:43;1.23;;;0.88;;
65358;SDS011;52491;45.900;6.346;2024-03-17T04:27:09;2.65;;;1.10;;
65358;SDS011;52491;45.900;6.346;2024-03-17T04:29:35;1.30;;;1.00;;
65358;SDS011;52491;45.900;6.346;2024-03-17T04:32:01;2.33;;;1.20;;
65358;SDS011;52491;45.900;6.346;2024-03-17T04:34:27;1.45;;;1.17;;
65358;SDS011;52491;45.900;6.346;2024-03-17T04:36:53;2.28;;;1.20;;
65358;SDS011;52491;45.900;6.346;2024-03-17T04:39:19;2.53;;;1.13;;
65358;SDS011;52491;45.900;6.346;2024-03-17T04:41:45;1.08;;;0.98;;
65358;SDS011;52491;45.900;6.346;2024-03-17T04:44:13;1.83;;;1.10;;
65358;SDS011;52491;45.900;6.346;2024-03-17T04:46:39;1.23;;;1.08;;
65358;SDS011;52491;45.900;6.346;2024-03-17T04:49:05;1.52;;;0.80;;
65358;SDS011;52491;45.900;6.346;2024-03-17T04:51:31;0.93;;;0.80;;
65358;SDS011;52491;45.900;6.346;2024-03-17T04:53:58;1.48;;;1.13;;
65358;SDS011;52491;45.900;6.346;2024-03-17T04:56:24;2.00;;;1.17;;
65358;SDS011;52491;45.900;6.346;2024-03-17T04:58:50;1.60;;;1.00;;
65358;SDS011;52491;45.900;6.346;2024-03-17T05:01:16;1.00;;;0.82;;
65358;SDS011;52491;45.900;6.346;2024-03-17T05:03:41;1.10;;;0.88;;
65358;SDS011;52491;45.900;6.346;2024-03-17T05:06:07;0.98;;;0.80;;
65358;SDS011;52491;45.900;6.346;2024-03-17T05:08:33;2.15;;;1.00;;
65358;SDS011;52491;45.900;6.346;2024-03-17T05:11:00;0.95;;;0.85;;
65358;SDS011;52491;45.900;6.346;2024-03-17T05:13:30;1.08;;;0.90;;
65358;SDS011;52491;45.900;6.346;2024-03-17T05:15:56;1.58;;;1.00;;
65358;SDS011;52491;45.900;6.346;2024-03-17T05:18:22;2.05;;;1.13;;
65358;SDS011;52491;45.900;6.346;2024-03-17T05:23:18;1.65;;;0.90;;
65358;SDS011;52491;45.900;6.346;2024-03-17T05:25:50;1.25;;;0.90;;
65358;SDS011;52491;45.900;6.346;2024-03-17T05:28:17;2.38;;;0.90;;
65358;SDS011;52491;45.900;6.346;2024-03-17T05:30:43;1.13;;;0.80;;
65358;SDS011;52491;45.900;6.346;2024-03-17T05:33:09;0.75;;;0.75;;
65358;SDS011;52491;45.900;6.346;2024-03-17T05:35:35;1.55;;;1.13;;
65358;SDS011;52491;45.900;6.346;2024-03-17T05:38:00;0.70;;;0.70;;
65358;SDS011;52491;45.900;6.346;2024-03-17T05:40:26;2.30;;;1.00;;
65358;SDS011;52491;45.900;6.346;2024-03-17T05:42:52;1.60;;;1.08;;
65358;SDS011;52491;45.900;6.346;2024-03-17T05:45:18;1.40;;;1.10;;
65358;SDS011;52491;45.900;6.346;2024-03-17T05:47:44;1.00;;;0.90;;
65358;SDS011;52491;45.900;6.346;2024-03-17T05:50:09;2.08;;;1.00;;
65358;SDS011;52491;45.900;6.346;2024-03-17T05:52:35;1.40;;;1.05;;
65358;SDS011;52491;45.900;6.346;2024-03-17T05:55:01;1.33;;;1.10;;
65358;SDS011;52491;45.900;6.346;2024-03-17T05:57:26;1.23;;;0.93;;
65358;SDS011;52491;45.900;6.346;2024-03-17T05:59:53;0.95;;;0.80;;
65358;SDS011;52491;45.900;6.346;2024-03-17T06:02:20;1.02;;;0.80;;
65358;SDS011;52491;45.900;6.346;2024-03-17T06:04:49;1.52;;;1.23;;
65358;SDS011;52491;45.900;6.346;2024-03-17T06:07:15;1.20;;;0.93;;
65358;SDS011;52491;45.900;6.346;2024-03-17T06:09:40;1.55;;;1.15;;
65358;SDS011;52491;45.900;6.346;2024-03-17T06:12:06;1.85;;;1.08;;
65358;SDS011;52491;45.900;6.346;2024-03-17T06:14:32;0.80;;;0.70;;
65358;SDS011;52491;45.900;6.346;2024-03-17T06:16:59;1.10;;;0.82;;
65358;SDS011;52491;45.900;6.346;2024-03-17T06:19:25;1.08;;;0.85;;
65358;SDS011;52491;45.900;6.346;2024-03-17T06:21:51;0.95;;;0.70;;
65358;SDS011;52491;45.900;6.346;2024-03-17T06:24:16;1.17;;;0.57;;
65358;SDS011;52491;45.900;6.346;2024-03-17T06:26:42;1.00;;;0.70;;
65358;SDS011;52491;45.900;6.346;2024-03-17T06:29:08;1.52;;;0.90;;
65358;SDS011;52491;45.900;6.346;2024-03-17T06:31:34;0.75;;;0.75;;
65358;SDS011;52491;45.900;6.346;2024-03-17T06:33:59;1.52;;;0.80;;
65358;SDS011;52491;45.900;6.346;2024-03-17T06:36:25;1.73;;;0.98;;
65358;SDS011;52491;45.900;6.346;2024-03-17T06:38:50;1.45;;;0.77;;
65358;SDS011;52491;45.900;6.346;2024-03-17T06:41:16;1.27;;;0.93;;
65358;SDS011;52491;45.900;6.346;2024-03-17T06:43:42;1.08;;;0.90;;
65358;SDS011;52491;45.900;6.346;2024-03-17T06:46:09;1.38;;;1.10;;
65358;SDS011;52491;45.900;6.346;2024-03-17T06:48:34;2.25;;;0.93;;
65358;SDS011;52491;45.900;6.346;2024-03-17T06:51:00;1.40;;;0.70;;
65358;SDS011;52491;45.900;6.346;2024-03-17T06:53:26;1.67;;;0.90;;
65358;SDS011;52491;45.900;6.346;2024-03-17T06:55:53;2.25;;;0.80;;
65358;SDS011;52491;45.900;6.346;2024-03-17T06:58:24;0.70;;;0.70;;
65358;SDS011;52491;45.900;6.346;2024-03-17T07:00:53;1.27;;;0.90;;
65358;SDS011;52491;45.900;6.346;2024-03-17T07:03:22;1.00;;;0.80;;
65358;SDS011;52491;45.900;6.346;2024-03-17T07:08:15;2.08;;;1.17;;
65358;SDS011;52491;45.900;6.346;2024-03-17T07:10:40;1.27;;;1.00;;
65358;SDS011;52491;45.900;6.346;2024-03-17T07:13:06;1.77;;;0.85;;
65358;SDS011;52491;45.900;6.346;2024-03-17T07:15:31;1.25;;;0.90;;
65358;SDS011;52491;45.900;6.346;2024-03-17T07:17:57;1.60;;;1.02;;
65358;SDS011;52491;45.900;6.346;2024-03-17T07:20:23;0.85;;;0.68;;
65358;SDS011;52491;45.900;6.346;2024-03-17T07:22:48;0.60;;;0.60;;
65358;SDS011;52491;45.900;6.346;2024-03-17T07:25:15;4.00;;;0.85;;
65358;SDS011;52491;45.900;6.346;2024-03-17T07:27:41;1.55;;;1.00;;
65358;SDS011;52491;45.900;6.346;2024-03-17T07:30:07;1.05;;;0.80;;
65358;SDS011;52491;45.900;6.346;2024-03-17T07:32:34;0.90;;;0.70;;
65358;SDS011;52491;45.900;6.346;2024-03-17T07:34:59;1.63;;;1.10;;
65358;SDS011;52491;45.900;6.346;2024-03-17T07:37:25;0.52;;;0.52;;
65358;SDS011;52491;45.900;6.346;2024-03-17T07:39:50;1.27;;;0.60;;
65358;SDS011;52491;45.900;6.346;2024-03-17T07:42:16;1.00;;;0.90;;
65358;SDS011;52491;45.900;6.346;2024-03-17T07:44:43;1.23;;;0.98;;
65358;SDS011;52491;45.900;6.346;2024-03-17T07:47:09;3.40;;;1.10;;
65358;SDS011;52491;45.900;6.346;2024-03-17T07:49:35;1.73;;;0.82;;
65358;SDS011;52491;45.900;6.346;2024-03-17T07:52:01;1.33;;;0.90;;
65358;SDS011;52491;45.900;6.346;2024-03-17T07:54:27;2.70;;;1.10;;
65358;SDS011;52491;45.900;6.346;2024-03-17T07:56:53;0.98;;;0.88;;
65358;SDS011;52491;45.900;6.346;2024-03-17T07:59:20;2.50;;;1.10;;
65358;SDS011;52491;45.900;6.346;2024-03-17T08:01:46;4.70;;;1.20;;
65358;SDS011;52491;45.900;6.346;2024-03-17T08:04:11;0.70;;;0.70;;
65358;SDS011;52491;45.900;6.346;2024-03-17T08:06:38;1.83;;;1.25;;
65358;SDS011;52491;45.900;6.346;2024-03-17T08:09:06;2.35;;;0.85;;
65358;SDS011;52491;45.900;6.346;2024-03-17T08:11:33;3.17;;;0.98;;
65358;SDS011;52491;45.900;6.346;2024-03-17T08:13:59;2.92;;;0.85;;
65358;SDS011;52491;45.900;6.346;2024-03-17T08:16:26;1.20;;;0.85;;
65358;SDS011;52491;45.900;6.346;2024-03-17T08:18:53;1.27;;;0.98;;
65358;SDS011;52491;45.900;6.346;2024-03-17T08:21:19;1.83;;;1.15;;
65358;SDS011;52491;45.900;6.346;2024-03-17T08:23:44;2.95;;;0.90;;
65358;SDS011;52491;45.900;6.346;2024-03-17T08:26:13;1.20;;;0.88;;
65358;SDS011;52491;45.900;6.346;2024-03-17T08:28:38;3.80;;;1.10;;
65358;SDS011;52491;45.900;6.346;2024-03-17T08:31:04;1.40;;;0.95;;
65358;SDS011;52491;45.900;6.346;2024-03-17T08:33:30;5.88;;;1.17;;
65358;SDS011;52491;45.900;6.346;2024-03-17T08:35:58;1.27;;;0.93;;
65358;SDS011;52491;45.900;6.346;2024-03-17T08:38:32;6.10;;;1.23;;
65358;SDS011;52491;45.900;6.346;2024-03-17T08:43:26;2.28;;;0.98;;
65358;SDS011;52491;45.900;6.346;2024-03-17T08:48:19;3.42;;;1.05;;
65358;SDS011;52491;45.900;6.346;2024-03-17T08:50:49;4.50;;;1.25;;
65358;SDS011;52491;45.900;6.346;2024-03-17T08:53:16;1.52;;;0.80;;
65358;SDS011;52491;45.900;6.346;2024-03-17T08:55:42;1.95;;;1.25;;
65358;SDS011;52491;45.900;6.346;2024-03-17T08:58:08;4.75;;;1.98;;
65358;SDS011;52491;45.900;6.346;2024-03-17T09:00:38;5.90;;;1.42;;
65358;SDS011;52491;45.900;6.346;2024-03-17T09:05:41;5.70;;;1.63;;
65358;SDS011;52491;45.900;6.346;2024-03-17T09:08:14;5.78;;;1.23;;
65358;SDS011;52491;45.900;6.346;2024-03-17T09:10:43;4.13;;;1.30;;
65358;SDS011;52491;45.900;6.346;2024-03-17T09:13:13;10.10;;;1.38;;
65358;SDS011;52491;45.900;6.346;2024-03-17T09:18:10;5.25;;;1.50;;
65358;SDS011;52491;45.900;6.346;2024-03-17T09:20:36;2.72;;;1.00;;
65358;SDS011;52491;45.900;6.346;2024-03-17T09:23:01;5.30;;;1.83;;
65358;SDS011;52491;45.900;6.346;2024-03-17T09:25:27;3.03;;;1.50;;
65358;SDS011;52491;45.900;6.346;2024-03-17T09:27:53;2.75;;;1.35;;
65358;SDS011;52491;45.900;6.346;2024-03-17T09:30:21;1.63;;;1.20;;
65358;SDS011;52491;45.900;6.346;2024-03-17T09:32:50;3.58;;;1.25;;
65358;SDS011;52491;45.900;6.346;2024-03-17T09:35:16;6.35;;;1.60;;
65358;SDS011;52491;45.900;6.346;2024-03-17T09:37:42;11.13;;;4.30;;
65358;SDS011;52491;45.900;6.346;2024-03-17T09:42:40;5.63;;;2.20;;
65358;SDS011;52491;45.900;6.346;2024-03-17T09:45:09;4.72;;;2.03;;
65358;SDS011;52491;45.900;6.346;2024-03-17T09:47:36;5.55;;;2.03;;
65358;SDS011;52491;45.900;6.346;2024-03-17T09:50:05;3.63;;;2.30;;
65358;SDS011;52491;45.900;6.346;2024-03-17T09:52:46;2.60;;;1.45;;
65358;SDS011;52491;45.900;6.346;2024-03-17T09:55:18;5.68;;;1.63;;
65358;SDS011;52491;45.900;6.346;2024-03-17T09:57:45;4.78;;;2.47;;
65358;SDS011;52491;45.900;6.346;2024-03-17T10:00:13;3.17;;;1.80;;
65358;SDS011;52491;45.900;6.346;2024-03-17T10:05:13;2.35;;;1.52;;
65358;SDS011;52491;45.900;6.346;2024-03-17T10:07:44;2.33;;;2.03;;
65358;SDS011;52491;45.900;6.346;2024-03-17T10:10:10;8.27;;;2.35;;
65358;SDS011;52491;45.900;6.346;2024-03-17T10:12:37;2.42;;;1.65;;
65358;SDS011;52491;45.900;6.346;2024-03-17T10:15:03;5.80;;;1.30;;
65358;SDS011;52491;45.900;6.346;2024-03-17T10:17:30;1.50;;;0.90;;
65358;SDS011;52491;45.900;6.346;2024-03-17T10:25:11;2.90;;;1.20;;
65358;SDS011;52491;45.900;6.346;2024-03-17T10:27:42;1.77;;;1.42;;
65358;SDS011;52491;45.900;6.346;2024-03-17T10:30:13;3.72;;;1.13;;
65358;SDS011;52491;45.900;6.346;2024-03-17T10:32:44;2.03;;;1.20;;
65358;SDS011;52491;45.900;6.346;2024-03-17T10:35:24;1.83;;;1.23;;
65358;SDS011;52491;45.900;6.346;2024-03-17T10:37:55;2.17;;;1.50;;
65358;SDS011;52491;45.900;6.346;2024-03-17T10:40:24;2.10;;;1.08;;
65358;SDS011;52491;45.900;6.346;2024-03-17T10:42:51;3.75;;;1.23;;
65358;SDS011;52491;45.900;6.346;2024-03-17T10:45:17;3.60;;;1.50;;
65358;SDS011;52491;45.900;6.346;2024-03-17T10:47:44;6.55;;;1.77;;
65358;SDS011;52491;45.900;6.346;2024-03-17T10:50:23;6.82;;;1.52;;
65358;SDS011;52491;45.900;6.346;2024-03-17T10:52:49;7.43;;;1.47;;
65358;SDS011;52491;45.900;6.346;2024-03-17T10:55:19;5.03;;;1.35;;
65358;SDS011;52491;45.900;6.346;2024-03-17T10:57:50;3.33;;;1.33;;
65358;SDS011;52491;45.900;6.346;2024-03-17T11:00:23;2.53;;;1.27;;
65358;SDS011;52491;45.900;6.346;2024-03-17T11:02:51;4.38;;;1.42;;
65358;SDS011;52491;45.900;6.346;2024-03-17T11:05:21;4.60;;;1.63;;
65358;SDS011;52491;45.900;6.346;2024-03-17T11:07:49;4.07;;;1.52;;
65358;SDS011;52491;45.900;6.346;2024-03-17T11:12:45;5.38;;;1.50;;
65358;SDS011;52491;45.900;6.346;2024-03-17T11:18:33;11.02;;;1.30;;
65358;SDS011;52491;45.900;6.346;2024-03-17T11:21:00;11.10;;;1.63;;
65358;SDS011;52491;45.900;6.346;2024-03-17T11:23:33;7.57;;;1.27;;
65358;SDS011;52491;45.900;6.346;2024-03-17T11:26:00;2.15;;;0.80;;
65358;SDS011;52491;45.900;6.346;2024-03-17T11:30:53;2.78;;;0.98;;
65358;SDS011;52491;45.900;6.346;2024-03-17T11:35:46;1.98;;;1.30;;
65358;SDS011;52491;45.900;6.346;2024-03-17T11:38:31;2.25;;;1.33;;
65358;SDS011;52491;45.900;6.346;2024-03-17T11:43:25;2.70;;;1.13;;
65358;SDS011;52491;45.900;6.346;2024-03-17T11:45:54;9.32;;;3.75;;
65358;SDS011;52491;45.900;6.346;2024-03-17T11:48:20;5.90;;;3.20;;
65358;SDS011;52491;45.900;6.346;2024-03-17T11:50:46;4.97;;;2.58;;
65358;SDS011;52491;45.900;6.346;2024-03-17T11:53:12;4.93;;;2.88;;
65358;SDS011;52491;45.900;6.346;2024-03-17T11:55:38;5.28;;;2.38;;
65358;SDS011;52491;45.900;6.346;2024-03-17T11:58:10;3.05;;;1.90;;
65358;SDS011;52491;45.900;6.346;2024-03-17T12:00:40;4.88;;;2.22;;
65358;SDS011;52491;45.900;6.346;2024-03-17T12:03:08;6.38;;;2.70;;
65358;SDS011;52491;45.900;6.346;2024-03-17T12:05:36;8.05;;;2.85;;
65358;SDS011;52491;45.900;6.346;2024-03-17T12:08:05;8.90;;;2.20;;
65358;SDS011;52491;45.900;6.346;2024-03-17T12:10:50;5.60;;;1.73;;
65358;SDS011;52491;45.900;6.346;2024-03-17T12:13:16;2.80;;;1.55;;
65358;SDS011;52491;45.900;6.346;2024-03-17T12:15:42;7.70;;;2.42;;
65358;SDS011;52491;45.900;6.346;2024-03-17T12:20:35;2.22;;;1.63;;
65358;SDS011;52491;45.900;6.346;2024-03-17T12:23:00;2.67;;;1.30;;
65358;SDS011;52491;45.900;6.346;2024-03-17T12:25:27;2.60;;;1.10;;
65358;SDS011;52491;45.900;6.346;2024-03-17T12:27:54;2.58;;;1.23;;
65358;SDS011;52491;45.900;6.346;2024-03-17T12:30:20;3.50;;;1.35;;
65358;SDS011;52491;45.900;6.346;2024-03-17T12:32:46;2.28;;;1.00;;
65358;SDS011;52491;45.900;6.346;2024-03-17T12:35:13;2.15;;;0.88;;
65358;SDS011;52491;45.900;6.346;2024-03-17T12:37:43;3.30;;;1.60;;
65358;SDS011;52491;45.900;6.346;2024-03-17T12:40:17;3.33;;;1.25;;
65358;SDS011;52491;45.900;6.346;2024-03-17T12:42:47;4.55;;;1.60;;
65358;SDS011;52491;45.900;6.346;2024-03-17T12:45:18;2.03;;;1.20;;
65358;SDS011;52491;45.900;6.346;2024-03-17T12:47:46;7.55;;;1.60;;
65358;SDS011;52491;45.900;6.346;2024-03-17T12:50:13;2.25;;;1.45;;
65358;SDS011;52491;45.900;6.346;2024-03-17T12:52:51;2.25;;;1.08;;
65358;SDS011;52491;45.900;6.346;2024-03-17T12:55:22;2.13;;;1.20;;
65358;SDS011;52491;45.900;6.346;2024-03-17T12:57:49;4.15;;;1.17;;
65358;SDS011;52491;45.900;6.346;2024-03-17T13:00:17;1.40;;;1.17;;
65358;SDS011;52491;45.900;6.346;2024-03-17T13:02:46;2.67;;;1.20;;
65358;SDS011;52491;45.900;6.346;2024-03-17T13:07:44;2.95;;;1.55;;
65358;SDS011;52491;45.900;6.346;2024-03-17T13:10:12;3.15;;;1.13;;
65358;SDS011;52491;45.900;6.346;2024-03-17T13:12:39;4.00;;;1.42;;
65358;SDS011;52491;45.900;6.346;2024-03-17T13:15:08;2.85;;;1.30;;
65358;SDS011;52491;45.900;6.346;2024-03-17T13:17:36;2.55;;;1.23;;
65358;SDS011;52491;45.900;6.346;2024-03-17T13:20:02;2.38;;;1.20;;
65358;SDS011;52491;45.900;6.346;2024-03-17T13:22:29;1.33;;;0.80;;
65358;SDS011;52491;45.900;6.346;2024-03-17T13:24:54;4.95;;;1.75;;
65358;SDS011;52491;45.900;6.346;2024-03-17T13:27:20;1.50;;;1.10;;
65358;SDS011;52491;45.900;6.346;2024-03-17T13:29:47;2.72;;;1.10;;
65358;SDS011;52491;45.900;6.346;2024-03-17T13:32:14;3.40;;;1.30;;
65358;SDS011;52491;45.900;6.346;2024-03-17T13:34:41;3.55;;;1.67;;
65358;SDS011;52491;45.900;6.346;2024-03-17T13:37:06;4.07;;;1.25;;
65358;SDS011;52491;45.900;6.346;2024-03-17T13:39:32;6.25;;;1.58;;
65358;SDS011;52491;45.900;6.346;2024-03-17T13:41:59;2.50;;;0.90;;
65358;SDS011;52491;45.900;6.346;2024-03-17T13:44:32;4.78;;;1.55;;
65358;SDS011;52491;45.900;6.346;2024-03-17T13:46:59;3.58;;;1.13;;
65358;SDS011;52491;45.900;6.346;2024-03-17T13:49:26;3.13;;;1.10;;
65358;SDS011;52491;45.900;6.346;2024-03-17T13:51:53;1.63;;;0.70;;
65358;SDS011;52491;45.900;6.346;2024-03-17T13:54:19;5.68;;;1.05;;
65358;SDS011;52491;45.900;6.346;2024-03-17T13:56:47;3.80;;;0.90;;
65358;SDS011;52491;45.900;6.346;2024-03-17T13:59:14;11.13;;;1.50;;
65358;SDS011;52491;45.900;6.346;2024-03-17T14:01:40;6.20;;;1.08;;
65358;SDS011;52491;45.900;6.346;2024-03-17T14:04:12;3.47;;;1.25;;
65358;SDS011;52491;45.900;6.346;2024-03-17T14:06:40;8.30;;;1.60;;
65358;SDS011;52491;45.900;6.346;2024-03-17T14:09:07;4.22;;;1.27;;
65358;SDS011;52491;45.900;6.346;2024-03-17T14:11:33;2.95;;;1.25;;
65358;SDS011;52491;45.900;6.346;2024-03-17T14:13:59;2.97;;;1.08;;
65358;SDS011;52491;45.900;6.346;2024-03-17T14:16:25;2.58;;;1.20;;
65358;SDS011;52491;45.900;6.346;2024-03-17T14:18:50;6.15;;;1.80;;
65358;SDS011;52491;45.900;6.346;2024-03-17T14:21:16;2.88;;;1.55;;
65358;SDS011;52491;45.900;6.346;2024-03-17T14:23:42;1.98;;;0.70;;
65358;SDS011;52491;45.900;6.346;2024-03-17T14:26:10;4.55;;;1.50;;
65358;SDS011;52491;45.900;6.346;2024-03-17T14:28:36;6.63;;;1.67;;
65358;SDS011;52491;45.900;6.346;2024-03-17T14:31:02;3.53;;;0.90;;
65358;SDS011;52491;45.900;6.346;2024-03-17T14:33:27;2.78;;;0.98;;
65358;SDS011;52491;45.900;6.346;2024-03-17T14:38:20;2.63;;;1.10;;
65358;SDS011;52491;45.900;6.346;2024-03-17T14:40:46;3.40;;;1.10;;
65358;SDS011;52491;45.900;6.346;2024-03-17T14:43:12;2.17;;;0.98;;
65358;SDS011;52491;45.900;6.346;2024-03-17T14:45:37;3.85;;;1.15;;
65358;SDS011;52491;45.900;6.346;2024-03-17T14:48:03;3.58;;;1.25;;
65358;SDS011;52491;45.900;6.346;2024-03-17T14:50:29;2.55;;;0.98;;
65358;SDS011;52491;45.900;6.346;2024-03-17T14:52:55;4.03;;;1.10;;
65358;SDS011;52491;45.900;6.346;2024-03-17T14:55:21;4.22;;;1.15;;
65358;SDS011;52491;45.900;6.346;2024-03-17T14:57:47;1.10;;;1.00;;
65358;SDS011;52491;45.900;6.346;2024-03-17T15:00:14;3.33;;;1.17;;
65358;SDS011;52491;45.900;6.346;2024-03-17T15:02:40;1.23;;;1.10;;
65358;SDS011;52491;45.900;6.346;2024-03-17T15:05:07;1.20;;;0.95;;
65358;SDS011;52491;45.900;6.346;2024-03-17T15:07:33;2.42;;;0.88;;
65358;SDS011;52491;45.900;6.346;2024-03-17T15:09:59;2.10;;;1.20;;
65358;SDS011;52491;45.900;6.346;2024-03-17T15:12:25;1.13;;;1.00;;
65358;SDS011;52491;45.900;6.346;2024-03-17T15:14:50;2.42;;;0.93;;
65358;SDS011;52491;45.900;6.346;2024-03-17T15:17:17;2.83;;;0.90;;
65358;SDS011;52491;45.900;6.346;2024-03-17T15:19:46;2.67;;;0.93;;
65358;SDS011;52491;45.900;6.346;2024-03-17T15:22:15;1.27;;;0.80;;
65358;SDS011;52491;45.900;6.346;2024-03-17T15:24:41;4.82;;;1.50;;
65358;SDS011;52491;45.900;6.346;2024-03-17T15:27:07;5.22;;;0.80;;
65358;SDS011;52491;45.900;6.346;2024-03-17T15:29:35;4.10;;;1.00;;
65358;SDS011;52491;45.900;6.346;2024-03-17T15:32:01;2.55;;;1.38;;